createdAt,value
2022-08-08T00:00:56.240Z,98408.81
2022-08-08T00:03:15.278Z,98412.41
2022-08-08T00:06:03.156Z,98409.59
2022-08-08T00:08:48.949Z,98411.38
2022-08-08T00:11:46.538Z,98410.09
2022-08-08T00:14:47.714Z,98415.72
2022-08-08T00:18:02.360Z,98414.94
2022-08-08T00:20:37.123Z,98415.19
2022-08-08T00:23:11.199Z,98418.75
2022-08-08T00:25:51.625Z,98416.50
2022-08-08T00:28:35.928Z,98418.78
2022-08-08T00:32:21.106Z,98426.94
2022-08-08T00:34:54.462Z,98419.03
2022-08-08T00:37:48.325Z,98422.34
2022-08-08T00:41:23.197Z,98414.19
2022-08-08T00:44:44.062Z,98428.47
2022-08-08T00:47:36.669Z,98422.63
2022-08-08T00:51:38.833Z,98420.81
2022-08-08T00:54:48.227Z,98421.56
2022-08-08T00:58:21.604Z,98415.72
2022-08-08T01:01:29.470Z,98417.75
2022-08-08T01:05:09.350Z,98420.81
2022-08-08T01:08:52.194Z,98412.91
2022-08-08T01:12:11.484Z,98414.69
2022-08-08T01:15:37.104Z,98417.75
2022-08-08T01:19:25.353Z,98413.16
2022-08-08T01:22:39.187Z,98413.44
2022-08-08T01:25:58.641Z,98412.13
2022-08-08T01:29:12.228Z,98416.25
2022-08-08T01:32:25.352Z,98417.25
2022-08-08T01:35:47.298Z,98406.78
2022-08-08T01:38:50.246Z,98413.44
2022-08-08T01:41:38.040Z,98415.72
2022-08-08T01:44:35.587Z,98418.50
2022-08-08T01:48:15.707Z,98421.84
2022-08-08T01:50:37.057Z,98408.06
2022-08-08T01:55:16.029Z,98414.69
2022-08-08T01:56:34.109Z,98414.13
2022-08-08T01:59:25.004Z,98416.66
2022-08-08T02:02:34.870Z,98415.91
2022-08-08T02:05:33.752Z,98415.34
2022-08-08T02:08:41.325Z,98415.34
2022-08-08T02:11:59.307Z,98413.59
2022-08-08T02:14:55.533Z,98424.78
2022-08-08T02:17:42.538Z,98424.78
2022-08-08T02:21:02.342Z,98419.41
2022-08-08T02:23:31.731Z,98421.41
2022-08-08T02:26:15.937Z,98417.09
2022-08-08T02:29:08.840Z,98418.09
2022-08-08T02:32:22.767Z,98414.03
2022-08-08T02:36:02.607Z,98414.78
2022-08-08T02:38:49.092Z,98421.38
2022-08-08T02:42:05.493Z,98422.41
2022-08-08T02:45:25.761Z,98430.00
2022-08-08T02:48:36.302Z,98428.97
2022-08-08T02:52:03.157Z,98430.22
2022-08-08T02:55:40.794Z,98440.38
2022-08-08T02:59:57.060Z,98435.47
2022-08-08T03:03:10.339Z,98432.34
2022-08-08T03:06:34.837Z,98436.91
2022-08-08T03:10:06.700Z,98436.13
2022-08-08T03:15:53.443Z,98437.97
2022-08-08T03:16:44.064Z,98439.78
2022-08-08T03:19:51.196Z,98441.31
2022-08-08T03:22:38.834Z,98441.78
2022-08-08T03:25:19.321Z,98441.03
2022-08-08T03:28:00.838Z,98432.09
2022-08-08T03:30:35.389Z,98446.81
2022-08-08T03:33:55.907Z,98446.56
2022-08-08T03:36:19.802Z,98451.16
2022-08-08T03:39:07.347Z,98445.06
2022-08-08T03:42:12.167Z,98447.09
2022-08-08T03:44:38.803Z,98448.84
2022-08-08T03:47:19.432Z,98449.34
2022-08-08T03:50:00.845Z,98448.06
2022-08-08T03:52:45.299Z,98442.16
2022-08-08T03:55:57.441Z,98449.75
2022-08-08T03:58:34.621Z,98447.47
2022-08-08T04:01:23.274Z,98448.25
2022-08-08T04:03:59.990Z,98451.28
2022-08-08T04:06:38.537Z,98459.19
2022-08-08T04:09:11.965Z,98463.25
2022-08-08T04:11:57.785Z,98464.50
2022-08-08T04:14:34.836Z,98467.06
2022-08-08T04:17:22.340Z,98464.47
2022-08-08T04:20:02.174Z,98465.25
2022-08-08T04:22:35.537Z,98465.47
2022-08-08T04:25:08.374Z,98470.31
2022-08-08T04:28:35.600Z,98471.06
2022-08-08T04:30:36.688Z,98469.06
2022-08-08T04:33:16.009Z,98474.41
2022-08-08T04:35:51.063Z,98479.50
2022-08-08T04:38:22.515Z,98484.63
2022-08-08T04:40:56.410Z,98481.03
2022-08-08T04:43:31.627Z,98481.56
2022-08-08T04:46:20.741Z,98487.44
2022-08-08T04:48:53.749Z,98487.69
2022-08-08T04:51:48.486Z,98491.78
2022-08-08T04:54:39.072Z,98495.59
2022-08-08T04:57:05.279Z,98498.97
2022-08-08T04:59:42.381Z,98501.34
2022-08-08T05:02:20.096Z,98495.28
2022-08-08T05:04:52.714Z,98497.13
2022-08-08T05:07:23.001Z,98503.78
2022-08-08T05:09:53.308Z,98506.88
2022-08-08T05:12:29.047Z,98506.69
2022-08-08T05:15:00.350Z,98503.44
2022-08-08T05:17:54.367Z,98500.44
2022-08-08T05:20:27.073Z,98508.63
2022-08-08T05:22:58.379Z,98509.75
2022-08-08T05:25:41.248Z,98508.47
2022-08-08T05:28:12.634Z,98508.78
2022-08-08T05:30:47.194Z,98498.56
2022-08-08T05:33:21.742Z,98509.06
2022-08-08T05:35:57.302Z,98505.72
2022-08-08T05:38:32.524Z,98508.53
2022-08-08T05:41:11.987Z,98514.66
2022-08-08T05:44:03.998Z,98519.00
2022-08-08T05:46:36.644Z,98515.69
2022-08-08T05:49:11.856Z,98510.84
2022-08-08T05:51:48.949Z,98511.34
2022-08-08T05:54:42.696Z,98520.78
2022-08-08T05:57:57.471Z,98517.41
2022-08-08T06:00:25.272Z,98523.75
2022-08-08T06:03:22.915Z,98526.78
2022-08-08T06:06:06.563Z,98521.31
2022-08-08T06:08:40.848Z,98520.72
2022-08-08T06:11:28.329Z,98529.59
2022-08-08T06:14:00.665Z,98526.69
2022-08-08T06:16:31.554Z,98532.22
2022-08-08T06:19:19.736Z,98534.91
2022-08-08T06:21:58.363Z,98539.13
2022-08-08T06:24:37.542Z,98540.25
2022-08-08T06:27:13.849Z,98535.75
2022-08-08T06:30:01.910Z,98537.78
2022-08-08T06:32:47.544Z,98542.16
2022-08-08T06:36:04.275Z,98528.94
2022-08-08T06:38:28.783Z,98542.28
2022-08-08T06:41:08.334Z,98535.50
2022-08-08T06:43:47.632Z,98541.41
2022-08-08T06:46:30.804Z,98540.81
2022-08-08T06:49:03.838Z,98530.59
2022-08-08T06:51:52.287Z,98544.47
2022-08-08T06:54:29.084Z,98540.94
2022-08-08T06:57:00.289Z,98540.41
2022-08-08T06:59:34.362Z,98537.41
2022-08-08T07:02:29.545Z,98537.00
2022-08-08T07:05:11.772Z,98546.78
2022-08-08T07:08:03.124Z,98545.22
2022-08-08T07:10:47.612Z,98539.66
2022-08-08T07:13:25.171Z,98547.22
2022-08-08T07:16:10.364Z,98550.16
2022-08-08T07:19:05.560Z,98549.97
2022-08-08T07:21:48.301Z,98547.16
2022-08-08T07:24:29.047Z,98546.00
2022-08-08T07:27:11.167Z,98554.13
2022-08-08T07:30:02.534Z,98546.31
2022-08-08T07:32:38.100Z,98547.91
2022-08-08T07:35:14.079Z,98549.31
2022-08-08T07:38:04.389Z,98549.97
2022-08-08T07:40:49.119Z,98545.47
2022-08-08T07:43:36.866Z,98548.72
2022-08-08T07:46:23.385Z,98548.38
2022-08-08T07:48:55.232Z,98555.25
2022-08-08T07:51:53.130Z,98551.44
2022-08-08T07:54:31.844Z,98551.44
2022-08-08T07:57:20.059Z,98553.16
2022-08-08T08:00:05.420Z,98554.06
2022-08-08T08:03:11.094Z,98560.88
2022-08-08T08:05:50.912Z,98554.75
2022-08-08T08:08:35.332Z,98555.44
2022-08-08T08:11:07.789Z,98552.56
2022-08-08T08:14:07.396Z,98562.22
2022-08-08T08:16:39.792Z,98560.41
2022-08-08T08:19:14.844Z,98551.78
2022-08-08T08:21:57.845Z,98556.44
2022-08-08T08:24:39.614Z,98554.63
2022-08-08T08:27:14.064Z,98549.91
2022-08-08T08:29:51.966Z,98560.59
2022-08-08T08:32:35.721Z,98557.25
2022-08-08T08:35:15.058Z,98558.63
2022-08-08T08:38:05.901Z,98549.50
2022-08-08T08:40:37.191Z,98555.38
2022-08-08T08:43:16.767Z,98549.47
2022-08-08T08:45:50.466Z,98554.84
2022-08-08T08:48:30.555Z,98550.03
2022-08-08T08:51:06.138Z,98546.81
2022-08-08T08:53:58.945Z,98549.66
2022-08-08T08:56:35.318Z,98545.69
2022-08-08T08:59:17.218Z,98538.06
2022-08-08T09:01:58.355Z,98545.19
2022-08-08T09:04:44.551Z,98543.53
2022-08-08T09:07:39.100Z,98537.28
2022-08-08T09:10:19.012Z,98546.88
2022-08-08T09:12:53.120Z,98548.91
2022-08-08T09:15:41.092Z,98552.94
2022-08-08T09:18:18.049Z,98545.94
2022-08-08T09:22:02.132Z,98543.63
2022-08-08T09:23:44.504Z,98539.22
2022-08-08T09:26:32.575Z,98543.75
2022-08-08T09:29:11.861Z,98545.56
2022-08-08T09:31:57.914Z,98537.09
2022-08-08T09:34:54.448Z,98533.31
2022-08-08T09:37:58.422Z,98541.69
2022-08-08T09:40:45.466Z,98533.69
2022-08-08T09:44:04.181Z,98527.72
2022-08-08T09:46:30.745Z,98535.09
2022-08-08T09:49:18.019Z,98525.84
2022-08-08T09:52:06.317Z,98527.47
2022-08-08T09:54:46.022Z,98532.59
2022-08-08T09:57:35.123Z,98530.59
2022-08-08T10:00:50.185Z,98521.38
2022-08-08T10:03:10.424Z,98535.66
2022-08-08T10:05:42.149Z,98523.81
2022-08-08T10:08:17.045Z,98533.34
2022-08-08T10:10:51.236Z,98521.81
2022-08-08T10:13:29.814Z,98520.03
2022-08-08T10:16:05.321Z,98518.09
2022-08-08T10:18:39.742Z,98519.06
2022-08-08T10:21:25.121Z,98515.97
2022-08-08T10:24:00.566Z,98508.50
2022-08-08T10:26:57.540Z,98515.09
2022-08-08T10:29:58.741Z,98512.97
2022-08-08T10:32:37.612Z,98511.25
2022-08-08T10:36:06.749Z,98495.50
2022-08-08T10:38:08.152Z,98497.94
2022-08-08T10:40:41.656Z,98497.28
2022-08-08T10:43:14.964Z,98493.84
2022-08-08T10:45:55.769Z,98489.00
2022-08-08T10:48:57.639Z,98498.31
2022-08-08T10:51:31.411Z,98487.88
2022-08-08T10:54:11.310Z,98486.00
2022-08-08T10:56:43.277Z,98483.72
2022-08-08T10:59:16.620Z,98481.38
2022-08-08T11:01:54.887Z,98480.19
2022-08-08T11:04:38.776Z,98476.66
2022-08-08T11:07:11.541Z,98490.34
2022-08-08T11:10:03.862Z,98487.78
2022-08-08T11:12:38.373Z,98487.38
2022-08-08T11:15:15.852Z,98482.75
2022-08-08T11:18:01.089Z,98485.94
2022-08-08T11:20:32.407Z,98487.28
2022-08-08T11:23:05.711Z,98480.00
2022-08-08T11:25:52.237Z,98489.06
2022-08-08T11:28:29.404Z,98474.84
2022-08-08T11:31:05.194Z,98486.84
2022-08-08T11:33:53.031Z,98480.75
2022-08-08T11:36:30.158Z,98478.88
2022-08-08T11:39:01.016Z,98470.13
2022-08-08T11:41:33.687Z,98470.16
2022-08-08T11:44:05.575Z,98463.38
2022-08-08T11:46:38.880Z,98475.56
2022-08-08T11:49:17.189Z,98466.50
2022-08-08T11:51:50.506Z,98467.03
2022-08-08T11:54:38.401Z,98467.09
2022-08-08T11:57:21.879Z,98467.25
2022-08-08T12:00:05.618Z,98456.06
2022-08-08T12:02:55.069Z,98458.19
2022-08-08T12:05:36.160Z,98454.38
2022-08-08T12:08:07.416Z,98458.09
2022-08-08T12:10:49.893Z,98459.38
2022-08-08T12:13:37.768Z,98458.66
2022-08-08T12:16:19.832Z,98462.00
2022-08-08T12:18:54.380Z,98457.00
2022-08-08T12:21:59.919Z,98458.56
2022-08-08T12:24:19.982Z,98455.19
2022-08-08T12:26:53.014Z,98454.75
2022-08-08T12:29:40.535Z,98458.91
2022-08-08T12:32:20.304Z,98459.66
2022-08-08T12:35:18.057Z,98458.59
2022-08-08T12:38:02.676Z,98454.00
2022-08-08T12:40:56.778Z,98459.28
2022-08-08T12:43:46.407Z,98455.47
2022-08-08T12:46:26.634Z,98453.16
2022-08-08T12:49:24.955Z,98452.19
2022-08-08T12:51:59.300Z,98438.34
2022-08-08T12:54:36.327Z,98441.75
2022-08-08T12:57:18.587Z,98431.34
2022-08-08T13:00:04.826Z,98436.63
2022-08-08T13:02:51.759Z,98433.41
2022-08-08T13:06:04.294Z,98433.00
2022-08-08T13:08:36.582Z,98436.16
2022-08-08T13:11:08.726Z,98431.53
2022-08-08T13:13:40.628Z,98432.78
2022-08-08T13:16:25.732Z,98430.75
2022-08-08T13:19:01.790Z,98430.16
2022-08-08T13:21:52.727Z,98419.47
2022-08-08T13:24:46.447Z,98412.41
2022-08-08T13:27:21.804Z,98417.13
2022-08-08T13:29:55.537Z,98421.22
2022-08-08T13:32:28.194Z,98408.78
2022-08-08T13:35:01.118Z,98410.41
2022-08-08T13:38:03.180Z,98416.06
2022-08-08T13:40:28.133Z,98425.16
2022-08-08T13:42:59.134Z,98412.31
2022-08-08T13:45:30.886Z,98405.81
2022-08-08T13:48:01.707Z,98414.88
2022-08-08T13:50:49.247Z,98409.34
2022-08-08T13:53:31.666Z,98419.03
2022-08-08T13:56:11.689Z,98411.72
2022-08-08T13:58:56.294Z,98407.28
2022-08-08T14:01:42.275Z,98410.38
2022-08-08T14:04:26.037Z,98413.72
2022-08-08T14:07:04.579Z,98405.13
2022-08-08T14:10:04.604Z,98413.16
2022-08-08T14:12:37.777Z,98415.28
2022-08-08T14:15:12.642Z,98415.16
2022-08-08T14:17:58.286Z,98413.00
2022-08-08T14:20:56.647Z,98416.44
2022-08-08T14:24:06.364Z,98408.34
2022-08-08T14:26:28.229Z,98414.50
2022-08-08T14:29:06.031Z,98418.72
2022-08-08T14:32:12.800Z,98408.56
2022-08-08T14:34:43.237Z,98418.69
2022-08-08T14:37:14.343Z,98410.94
2022-08-08T14:39:46.559Z,98414.13
2022-08-08T14:42:19.997Z,98404.63
2022-08-08T14:45:02.807Z,98417.25
2022-08-08T14:47:36.432Z,98409.56
2022-08-08T14:50:37.639Z,98411.91
2022-08-08T14:53:09.261Z,98417.50
2022-08-08T14:55:45.093Z,98408.88
2022-08-08T14:58:20.258Z,98411.06
2022-08-08T15:00:54.372Z,98415.50
2022-08-08T15:03:24.786Z,98423.16
2022-08-08T15:05:59.016Z,98415.44
2022-08-08T15:08:35.056Z,98404.75
2022-08-08T15:11:17.546Z,98408.31
2022-08-08T15:14:01.545Z,98407.59
2022-08-08T15:16:35.692Z,98412.69
2022-08-08T15:19:07.276Z,98407.88
2022-08-08T15:21:42.968Z,98417.66
2022-08-08T15:24:15.932Z,98417.47
2022-08-08T15:26:52.863Z,98414.94
2022-08-08T15:29:24.520Z,98421.66
2022-08-08T15:32:19.947Z,98416.78
2022-08-08T15:34:49.889Z,98417.47
2022-08-08T15:37:20.082Z,98415.97
2022-08-08T15:39:51.778Z,98419.16
2022-08-08T15:42:32.493Z,98419.88
2022-08-08T15:45:04.342Z,98417.47
2022-08-08T15:47:37.448Z,98420.16
2022-08-08T15:50:19.794Z,98428.59
2022-08-08T15:52:50.721Z,98420.13
2022-08-08T15:55:20.879Z,98421.41
2022-08-08T15:57:51.638Z,98430.97
2022-08-08T16:00:27.472Z,98430.00
2022-08-08T16:03:01.637Z,98416.28
2022-08-08T16:05:45.881Z,98426.28
2022-08-08T16:08:23.807Z,98426.41
2022-08-08T16:13:05.740Z,98420.72
2022-08-08T16:13:45.975Z,98428.13
2022-08-08T16:16:18.733Z,98426.28
2022-08-08T16:18:57.798Z,98423.28
2022-08-08T16:21:31.470Z,98431.22
2022-08-08T16:24:04.206Z,98425.25
2022-08-08T16:26:36.494Z,98423.16
2022-08-08T16:29:09.886Z,98425.19
2022-08-08T16:31:48.406Z,98424.09
2022-08-08T16:34:24.884Z,98426.91
2022-08-08T16:36:55.281Z,98428.34
2022-08-08T16:39:59.855Z,98427.81
2022-08-08T16:42:18.343Z,98436.16
2022-08-08T16:44:54.872Z,98437.19
2022-08-08T16:47:40.287Z,98432.66
2022-08-08T16:50:20.298Z,98432.44
2022-08-08T16:54:59.768Z,98429.47
2022-08-08T16:55:55.517Z,98429.84
2022-08-08T16:58:34.511Z,98431.84
2022-08-08T17:01:06.395Z,98428.66
2022-08-08T17:03:58.712Z,98427.97
2022-08-08T17:06:36.129Z,98433.63
2022-08-08T17:09:15.579Z,98433.50
2022-08-08T17:11:49.060Z,98431.06
2022-08-08T17:14:33.076Z,98435.16
2022-08-08T17:17:06.496Z,98442.13
2022-08-08T17:19:56.692Z,98438.03
2022-08-08T17:22:33.062Z,98444.41
2022-08-08T17:25:12.934Z,98449.78
2022-08-08T17:27:47.329Z,98447.41
2022-08-08T17:30:23.274Z,98445.16
2022-08-08T17:34:52.649Z,98449.78
2022-08-08T17:35:53.219Z,98448.28
2022-08-08T17:38:30.977Z,98452.13
2022-08-08T17:41:01.291Z,98454.84
2022-08-08T17:44:01.263Z,98456.59
2022-08-08T17:46:41.690Z,98461.16
2022-08-08T17:49:16.548Z,98459.13
2022-08-08T17:51:55.588Z,98461.22
2022-08-08T17:54:29.330Z,98462.19
2022-08-08T17:56:59.996Z,98470.38
2022-08-08T17:59:36.483Z,98469.63
2022-08-08T18:02:21.521Z,98466.03
2022-08-08T18:05:04.437Z,98474.78
2022-08-08T18:08:02.424Z,98476.91
2022-08-08T18:10:31.261Z,98478.00
2022-08-08T18:13:04.175Z,98478.81
2022-08-08T18:15:37.864Z,98486.59
2022-08-08T18:18:28.616Z,98495.31
2022-08-08T18:21:00.005Z,98491.53
2022-08-08T18:23:40.599Z,98494.78
2022-08-08T18:26:19.981Z,98500.63
2022-08-08T18:28:54.297Z,98504.00
2022-08-08T18:31:27.656Z,98501.94
2022-08-08T18:34:11.801Z,98507.03
2022-08-08T18:36:48.479Z,98503.59
2022-08-08T18:39:28.685Z,98502.81
2022-08-08T18:42:03.682Z,98503.38
2022-08-08T18:44:35.975Z,98512.22
2022-08-08T18:47:07.265Z,98515.22
2022-08-08T18:49:57.278Z,98520.66
2022-08-08T18:52:28.103Z,98528.03
2022-08-08T18:55:09.802Z,98527.44
2022-08-08T18:57:45.980Z,98524.53
2022-08-08T19:00:19.774Z,98530.59
2022-08-08T19:02:56.646Z,98528.47
2022-08-08T19:05:37.780Z,98535.63
2022-08-08T19:08:24.688Z,98539.38
2022-08-08T19:11:01.673Z,98547.63
2022-08-08T19:13:38.290Z,98546.63
2022-08-08T19:16:28.568Z,98548.41
2022-08-08T19:19:09.745Z,98548.94
2022-08-08T19:21:48.702Z,98561.50
2022-08-08T19:24:42.307Z,98559.72
2022-08-08T19:27:12.477Z,98561.31
2022-08-08T19:29:50.014Z,98577.47
2022-08-08T19:32:22.883Z,98578.47
2022-08-08T19:34:55.054Z,98574.59
2022-08-08T19:37:42.255Z,98576.81
2022-08-08T19:40:16.678Z,98578.69
2022-08-08T19:42:48.163Z,98578.25
2022-08-08T19:45:59.566Z,98578.91
2022-08-08T19:48:29.186Z,98581.44
2022-08-08T19:51:01.856Z,98579.84
2022-08-08T19:53:53.613Z,98587.38
2022-08-08T19:56:25.831Z,98584.19
2022-08-08T19:59:12.394Z,98578.97
2022-08-08T20:02:01.659Z,98577.56
2022-08-08T20:04:34.820Z,98582.69
2022-08-08T20:08:27.000Z,98583.13
2022-08-08T20:09:58.619Z,98588.44
2022-08-08T20:12:32.694Z,98586.50
2022-08-08T20:15:14.156Z,98592.09
2022-08-08T20:17:50.184Z,98594.06
2022-08-08T20:20:25.299Z,98593.94
2022-08-08T20:22:56.415Z,98604.81
2022-08-08T20:25:30.115Z,98597.19
2022-08-08T20:28:06.803Z,98595.97
2022-08-08T20:30:56.353Z,98593.69
2022-08-08T20:34:30.677Z,98595.97
2022-08-08T20:36:22.334Z,98599.22
2022-08-08T20:38:52.632Z,98600.06
2022-08-08T20:41:22.821Z,98598.63
2022-08-08T20:43:56.841Z,98609.50
2022-08-08T20:46:29.471Z,98602.63
2022-08-08T20:49:02.312Z,98601.41
2022-08-08T20:51:33.183Z,98596.84
2022-08-08T20:54:14.532Z,98599.50
2022-08-08T20:57:05.767Z,98592.63
2022-08-08T20:59:44.888Z,98602.16
2022-08-08T21:02:19.734Z,98601.41
2022-08-08T21:05:01.025Z,98596.41
2022-08-08T21:08:33.491Z,98597.97
2022-08-08T21:10:28.123Z,98611.66
2022-08-08T21:12:58.500Z,98602.22
2022-08-08T21:16:06.174Z,98604.56
2022-08-08T21:18:19.404Z,98607.69
2022-08-08T21:20:52.411Z,98607.47
2022-08-08T21:23:58.810Z,98609.50
2022-08-08T21:26:26.775Z,98608.53
2022-08-08T21:29:01.176Z,98612.94
2022-08-08T21:31:53.093Z,98617.59
2022-08-08T21:34:23.097Z,98606.91
2022-08-08T21:36:58.416Z,98617.50
2022-08-08T21:39:54.798Z,98618.34
2022-08-08T21:42:19.249Z,98625.28
2022-08-08T21:44:58.948Z,98620.44
2022-08-08T21:48:04.550Z,98621.53
2022-08-08T21:50:21.654Z,98612.28
2022-08-08T21:54:31.171Z,98616.47
2022-08-08T21:56:29.550Z,98618.59
2022-08-08T21:58:37.277Z,98620.19
2022-08-08T22:01:25.345Z,98618.94
2022-08-08T22:03:59.614Z,98620.06
2022-08-08T22:06:32.034Z,98626.22
2022-08-08T22:09:08.284Z,98617.53
2022-08-08T22:11:51.385Z,98617.84
2022-08-08T22:14:29.327Z,98616.34
2022-08-08T22:17:00.961Z,98620.53
2022-08-08T22:20:12.191Z,98633.63
2022-08-08T22:22:28.752Z,98620.81
2022-08-08T22:25:03.006Z,98630.09
2022-08-08T22:28:04.317Z,98634.22
2022-08-08T22:30:33.457Z,98634.72
2022-08-08T22:33:06.037Z,98632.41
2022-08-08T22:36:04.384Z,98630.69
2022-08-08T22:38:47.941Z,98634.53
2022-08-08T22:41:23.414Z,98632.78
2022-08-08T22:44:02.649Z,98635.16
2022-08-08T22:46:38.790Z,98631.34
2022-08-08T22:49:10.117Z,98636.78
2022-08-08T22:51:42.786Z,98635.78
2022-08-08T22:54:33.247Z,98628.38
2022-08-08T22:57:18.035Z,98630.69
2022-08-08T22:59:59.570Z,98624.53
2022-08-08T23:02:31.641Z,98628.13
2022-08-08T23:05:05.111Z,98632.25
2022-08-08T23:07:51.886Z,98634.31
2022-08-08T23:10:29.777Z,98635.06
2022-08-08T23:13:02.600Z,98634.25
2022-08-08T23:16:37.660Z,98635.97
2022-08-08T23:18:25.716Z,98630.28
2022-08-08T23:21:03.640Z,98639.00
2022-08-08T23:23:48.265Z,98640.63
2022-08-08T23:26:25.263Z,98644.28
2022-08-08T23:28:57.983Z,98642.53
2022-08-08T23:31:28.135Z,98642.06
2022-08-08T23:34:16.645Z,98638.75
2022-08-08T23:36:48.716Z,98640.09
2022-08-08T23:39:18.938Z,98643.19
2022-08-08T23:41:50.973Z,98636.03
2022-08-08T23:44:25.494Z,98631.50
2022-08-08T23:49:00.669Z,98633.03
2022-08-08T23:50:02.852Z,98626.38
2022-08-08T23:52:34.472Z,98633.56
2022-08-08T23:55:14.669Z,98631.00
2022-08-08T23:57:53.507Z,98635.09
